createdAt,value
2022-11-21T00:02:38.114Z,1015
2022-11-21T00:12:38.109Z,1015
2022-11-21T00:22:38.139Z,1015
2022-11-21T00:32:38.134Z,1015
2022-11-21T00:42:38.128Z,1015
2022-11-21T00:52:38.136Z,1015
2022-11-21T01:02:38.129Z,1014
2022-11-21T01:12:38.161Z,1015
2022-11-21T01:22:38.124Z,1015
2022-11-21T01:32:38.169Z,1015
2022-11-21T01:42:38.134Z,1015
2022-11-21T01:52:38.185Z,1014
2022-11-21T02:02:38.129Z,1014
2022-11-21T02:12:38.130Z,1014
2022-11-21T02:22:38.135Z,1014
2022-11-21T02:32:38.217Z,1014
2022-11-21T02:42:38.161Z,1014
2022-11-21T02:52:38.162Z,1014
2022-11-21T03:02:38.173Z,1014
2022-11-21T03:12:38.198Z,1014
2022-11-21T03:22:38.176Z,1014
2022-11-21T03:32:38.188Z,1014
2022-11-21T03:42:38.130Z,1014
2022-11-21T03:52:38.225Z,1014
2022-11-21T04:02:38.173Z,1014
2022-11-21T04:12:38.224Z,1014
2022-11-21T04:22:38.181Z,1014
2022-11-21T04:32:38.204Z,1014
2022-11-21T04:42:38.194Z,1014
2022-11-21T04:52:38.235Z,1013
2022-11-21T05:02:38.210Z,1013
2022-11-21T05:12:38.213Z,1013
2022-11-21T05:22:38.218Z,1013
2022-11-21T05:32:38.219Z,1013
2022-11-21T05:42:38.226Z,1013
2022-11-21T05:52:38.274Z,1013
2022-11-21T06:02:38.267Z,1013
2022-11-21T06:12:38.242Z,1013
2022-11-21T06:22:38.225Z,1013
2022-11-21T06:32:38.361Z,1013
2022-11-21T06:42:38.229Z,1013
2022-11-21T06:52:38.252Z,1013
2022-11-21T07:02:38.247Z,1013
2022-11-21T07:12:38.252Z,1013
2022-11-21T07:22:38.251Z,1013
2022-11-21T07:32:38.260Z,1013
2022-11-21T07:42:38.267Z,1013
2022-11-21T07:52:38.270Z,1013
2022-11-21T08:02:38.275Z,1013
2022-11-21T08:12:38.338Z,1013
2022-11-21T08:22:38.273Z,1013
2022-11-21T08:32:38.267Z,1013
2022-11-21T08:42:38.270Z,1013
2022-11-21T08:52:38.284Z,1013
2022-11-21T09:02:38.294Z,1013
2022-11-21T09:12:38.275Z,1013
2022-11-21T09:22:38.281Z,1013
2022-11-21T09:32:38.287Z,1013
2022-11-21T09:42:38.231Z,1013
2022-11-21T09:52:38.289Z,1013
2022-11-21T10:02:38.256Z,1013
2022-11-21T10:12:38.256Z,1013
2022-11-21T10:22:38.232Z,1012
2022-11-21T10:32:38.260Z,1012
2022-11-21T10:42:38.230Z,1012
2022-11-21T10:52:38.236Z,1012
2022-11-21T11:02:38.230Z,1012
2022-11-21T11:12:38.230Z,1012
2022-11-21T11:22:38.217Z,1011
2022-11-21T11:32:38.229Z,1011
2022-11-21T11:42:38.226Z,1011
2022-11-21T11:52:38.231Z,1011
2022-11-21T12:02:38.274Z,1011
2022-11-21T12:12:38.347Z,1011
2022-11-21T12:22:38.208Z,1011
2022-11-21T12:32:38.243Z,1011
2022-11-21T12:42:38.198Z,1010
2022-11-21T12:52:38.213Z,1010
2022-11-21T13:02:38.207Z,1010
2022-11-21T13:12:38.216Z,1010
2022-11-21T13:22:38.201Z,1010
2022-11-21T13:32:38.234Z,1010
2022-11-21T13:42:38.201Z,1010
2022-11-21T13:52:38.216Z,1010
2022-11-21T14:02:38.188Z,1010
2022-11-21T14:12:42.967Z,1010
2022-11-21T14:22:42.454Z,1010
2022-11-21T14:32:38.197Z,1010
2022-11-21T14:42:38.176Z,1010
2022-11-21T14:52:38.174Z,1010
2022-11-21T15:02:38.188Z,1010
2022-11-21T15:12:41.523Z,1010
2022-11-21T15:22:38.150Z,1010
2022-11-21T15:32:38.183Z,1010
2022-11-21T15:42:38.163Z,1010
2022-11-21T15:52:38.194Z,1010
2022-11-21T16:02:38.180Z,1010
2022-11-21T16:12:38.218Z,1010
2022-11-21T16:22:41.514Z,1010
2022-11-21T16:32:38.200Z,1010
2022-11-21T16:42:38.213Z,1010
2022-11-21T16:52:38.222Z,1010
2022-11-21T17:02:38.264Z,1010
2022-11-21T17:12:38.234Z,1010
2022-11-21T17:22:38.248Z,1010
2022-11-21T17:32:38.270Z,1010
2022-11-21T17:42:38.238Z,1010
2022-11-21T17:52:38.254Z,1010
2022-11-21T18:02:38.405Z,1010
2022-11-21T18:12:38.234Z,1010
2022-11-21T18:22:38.253Z,1011
2022-11-21T18:32:38.271Z,1010
2022-11-21T18:42:38.229Z,1010
2022-11-21T18:52:42.209Z,1010
2022-11-21T19:02:38.252Z,1010
2022-11-21T19:12:39.780Z,1010
2022-11-21T19:22:38.253Z,1010
2022-11-21T19:32:38.273Z,1010
2022-11-21T19:42:38.273Z,1010
2022-11-21T19:52:38.309Z,1010
2022-11-21T20:02:38.279Z,1010
2022-11-21T20:12:38.304Z,1010
2022-11-21T20:22:38.290Z,1010
2022-11-21T20:32:38.360Z,1010
2022-11-21T20:42:38.313Z,1010
2022-11-21T21:02:38.342Z,1010
2022-11-21T21:12:38.360Z,1010
2022-11-21T21:22:38.324Z,1010
2022-11-21T21:32:38.393Z,1010
2022-11-21T21:42:38.319Z,1010
2022-11-21T21:52:38.387Z,1010
2022-11-21T22:12:42.647Z,1010
2022-11-21T22:22:38.380Z,1009
2022-11-21T22:32:38.422Z,1009
2022-11-21T22:42:38.369Z,1009
2022-11-21T22:52:38.820Z,1009
2022-11-21T23:02:38.398Z,1009
2022-11-21T23:12:38.409Z,1009
2022-11-21T23:22:38.416Z,1009
2022-11-21T23:32:38.433Z,1009
2022-11-21T23:42:38.422Z,1008
2022-11-21T23:52:38.462Z,1008
